.
WxDataArchive / Data Records for 2008-03-01
2008-02-29 March 2008 2008-03-02

Data Records for Saturday, 01 March 2008

Time	Temp	Chill	HIndex	Humid	Dewpt	 Wind 	HiWind	WindDir	Rain 	Barom 
-----	----	-----	------	-----	-----	------	------	-------	-----	----- 
00:00	32.1	32.1	32.1	68	22.7	2	5	270	0.00	29.982 
00:05	31.8	31.8	31.8	68	22.5	3	9	270	0.00	29.979 
00:10	31.6	31.6	31.6	69	22.6	2	6	270	0.00	29.981 
00:15	31.3	31.3	31.3	69	22.3	2	5	270	0.00	29.984 
00:20	31.3	31.3	31.3	69	22.3	3	10	248	0.00	29.984 
00:25	31.2	31.2	31.2	69	22.2	3	6	270	0.00	29.986 
00:30	31.0	31.0	31.0	69	22.0	3	10	248	0.00	29.985 
00:35	30.9	30.9	30.9	70	22.3	2	5	248	0.00	29.987 
00:40	30.7	30.7	30.7	70	22.1	2	7	248	0.00	29.984 
00:45	30.9	30.9	30.9	71	22.6	3	6	270	0.00	29.988 
00:50	31.0	31.0	31.0	71	22.7	3	6	270	0.00	29.986 
00:55	31.0	31.0	31.0	71	22.7	3	12	270	0.00	29.984 
01:00	31.0	31.0	31.0	71	22.7	3	7	248	0.00	29.984 
01:05	30.9	30.9	30.9	72	23.0	3	6	248	0.00	29.985 
01:10	31.0	31.0	31.0	71	22.7	3	7	270	0.00	29.987 
01:15	31.2	31.2	31.2	71	22.9	2	4	248	0.00	29.986 
01:20	31.3	31.3	31.3	71	23.0	2	6	270	0.00	29.988 
01:25	31.5	31.5	31.5	70	22.9	3	5	270	0.00	29.991 
01:30	31.6	31.6	31.6	69	22.6	3	7	270	0.00	29.986 
01:35	31.6	31.6	31.6	68	22.3	3	7	270	0.00	29.988 
01:40	31.6	31.6	31.6	68	22.3	2	5	270	0.00	29.989 
01:45	31.8	31.8	31.8	68	22.5	3	6	270	0.00	29.991 
01:50	31.6	31.6	31.6	67	21.9	2	6	248	0.00	29.992 
01:55	31.8	31.8	31.8	66	21.8	3	5	270	0.00	29.992 
02:00	31.8	31.8	31.8	66	21.8	3	8	270	0.00	29.993 
02:05	31.8	31.8	31.8	65	21.4	2	6	270	0.00	29.994 
02:10	31.8	31.8	31.8	65	21.4	3	6	270	0.00	29.996 
02:15	31.8	31.8	31.8	65	21.4	3	6	270	0.00	29.995 
02:20	31.8	31.8	31.8	65	21.4	2	6	270	0.00	30.000 
02:25	31.8	31.8	31.8	65	21.4	3	6	270	0.00	30.000 
02:30	31.6	31.6	31.6	64	20.8	3	7	270	0.00	29.999 
02:35	31.6	31.6	31.6	64	20.8	2	5	270	0.00	29.996 
02:40	31.6	31.6	31.6	64	20.8	2	7	270	0.00	30.000 
02:45	31.6	31.6	31.6	63	20.5	3	11	270	0.00	29.998 
02:50	31.6	31.6	31.6	62	20.1	3	7	270	0.00	30.000 
02:55	31.6	31.6	31.6	62	20.1	2	7	270	0.00	30.000 
03:00	31.5	31.5	31.5	63	20.4	2	7	270	0.00	30.000 
03:05	31.3	31.3	31.3	63	20.2	2	5	270	0.00	30.001 
03:10	31.2	31.2	31.2	63	20.1	2	5	270	0.00	30.005 
03:15	31.2	31.2	31.2	64	20.5	2	4	270	0.00	30.007 
03:20	31.2	31.2	31.2	64	20.5	2	5	270	0.00	30.007 
03:25	31.0	31.0	31.0	63	19.9	2	6	270	0.00	30.005 
03:30	31.0	31.0	31.0	63	19.9	2	7	270	0.00	30.008 
03:35	31.0	31.0	31.0	64	20.3	3	7	270	0.00	30.009 
03:40	31.0	31.0	31.0	64	20.3	2	5	270	0.00	30.011 
03:45	30.9	30.9	30.9	64	20.2	2	5	270	0.00	30.012 
03:50	30.9	30.9	30.9	64	20.2	1	4	315	0.00	30.015 
03:55	30.7	30.7	30.7	63	19.6	2	10	292	0.00	30.019 
04:00	30.6	30.6	30.6	63	19.5	2	6	270	0.00	30.022 
04:05	30.4	30.4	30.4	64	19.7	2	4	338	0.00	30.027 
04:10	30.1	30.1	30.1	65	19.8	2	6	338	0.00	30.028 
04:15	29.8	29.8	29.8	67	20.2	2	7	292	0.00	30.033 
04:20	29.4	29.4	29.4	68	20.2	1	6	315	0.00	30.041 
04:25	29.0	29.0	29.0	69	20.1	2	6	315	0.00	30.044 
04:30	29.0	29.0	29.0	69	20.1	3	6	315	0.00	30.045 
04:35	28.8	28.8	28.8	70	20.3	2	5	292	0.00	30.046 
04:40	28.8	28.8	28.8	69	19.9	2	5	315	0.00	30.047 
04:45	28.7	28.7	28.7	69	19.8	1	3	292	0.00	30.047 
04:50	28.7	28.7	28.7	69	19.8	1	3	338	0.00	30.048 
04:55	28.7	28.7	28.7	69	19.8	1	3	270	0.00	30.048 
05:00	28.7	28.7	28.7	69	19.8	1	5	270	0.00	30.051 
05:05	28.7	28.7	28.7	69	19.8	1	4	292	0.00	30.053 
05:10	28.5	28.5	28.5	69	19.6	1	5	270	0.00	30.054 
05:15	28.4	28.4	28.4	69	19.5	1	4	248	0.00	30.056 
05:20	28.2	28.2	28.2	69	19.4	2	7	270	0.00	30.058 
05:25	28.1	28.1	28.1	69	19.3	1	4	248	0.00	30.061 
05:30	27.8	27.8	27.8	69	19.0	1	4	270	0.00	30.064 
05:35	27.6	27.6	27.6	69	18.8	1	5	248	0.00	30.068 
05:40	27.6	27.6	27.6	70	19.1	1	3	248	0.00	30.075 
05:45	27.3	27.3	27.3	70	18.8	0	2	248	0.00	30.078 
05:50	27.2	27.2	27.2	71	19.1	1	3	270	0.00	30.083 
05:55	27.2	27.2	27.2	71	19.1	1	4	270	0.00	30.086 
06:00	27.2	27.2	27.2	71	19.1	1	4	270	0.00	30.091 
06:05	27.0	27.0	27.0	71	18.9	1	3	270	0.00	30.093 
06:10	26.9	26.9	26.9	71	18.8	1	3	270	0.00	30.094 
06:15	26.9	26.9	26.9	71	18.8	1	3	248	0.00	30.095 
06:20	26.9	26.9	26.9	70	18.4	1	3	248	0.00	30.096 
06:25	26.7	26.7	26.7	69	17.9	1	3	225	0.00	30.096 
06:30	26.6	26.6	26.6	69	17.8	1	4	248	0.00	30.097 
06:35	26.4	26.4	26.4	69	17.6	1	3	248	0.00	30.099 
06:40	26.4	26.4	26.4	68	17.3	1	3	315	0.00	30.097 
06:45	26.3	26.3	26.3	68	17.2	1	4	270	0.00	30.099 
06:50	26.3	26.3	26.3	68	17.2	1	3	270	0.00	30.100 
06:55	26.1	26.1	26.1	68	17.0	1	3	270	0.00	30.101 
07:00	26.1	26.1	26.1	68	17.0	0	2	270	0.00	30.104 
07:05	26.0	26.0	26.0	68	16.9	0	3	270	0.00	30.104 
07:10	25.8	25.8	25.8	68	16.7	0	1	270	0.00	30.108 
07:15	25.7	25.7	25.7	68	16.6	0	3	270	0.00	30.111 
07:20	25.6	25.6	25.6	69	16.9	0	2	270	0.00	30.112 
07:25	25.4	25.4	25.4	68	16.3	0	2	270	0.00	30.117 
07:30	25.4	25.4	25.4	68	16.3	0	3	270	0.00	30.118 
07:35	25.4	25.4	25.4	67	16.0	0	3	270	0.00	30.121 
07:40	25.6	25.6	25.6	66	15.8	1	2	225	0.00	30.126 
07:45	25.7	25.7	25.7	65	15.6	1	3	248	0.00	30.130 
07:50	25.8	25.8	25.8	65	15.7	0	2	248	0.00	30.129 
07:55	25.8	25.8	25.8	64	15.3	0	2	248	0.00	30.133 
08:00	26.0	26.0	26.0	64	15.5	0	2	248	0.00	30.137 
08:05	26.1	26.1	26.1	64	15.6	1	3	248	0.00	30.142 
08:10	26.3	26.3	26.3	64	15.8	1	3	225	0.00	30.144 
08:15	26.4	26.4	26.4	64	15.9	0	2	225	0.00	30.147 
08:20	26.6	26.6	26.6	63	15.7	1	3	248	0.00	30.148 
08:25	26.7	26.7	26.7	63	15.8	1	3	248	0.00	30.154 
08:30	27.0	27.0	27.0	62	15.7	1	3	248	0.00	30.159 
08:35	27.2	27.2	27.2	62	15.9	1	3	248	0.00	30.160 
08:40	27.3	27.3	27.3	62	16.0	1	4	248	0.00	30.160 
08:45	27.5	27.5	27.5	61	15.8	1	5	270	0.00	30.165 
08:50	27.8	27.8	27.8	61	16.1	2	5	248	0.00	30.167 
08:55	28.1	28.1	28.1	61	16.4	1	5	225	0.00	30.168 
09:00	28.4	28.4	28.4	60	16.3	1	5	248	0.00	30.170 
09:05	28.5	28.5	28.5	59	16.0	1	6	248	0.00	30.168 
09:10	28.8	28.8	28.8	59	16.3	1	4	270	0.00	30.171 
09:15	29.0	29.0	29.0	59	16.5	2	5	248	0.00	30.173 
09:20	29.1	29.1	29.1	59	16.6	1	4	270	0.00	30.174 
09:25	29.3	29.3	29.3	57	16.0	2	10	338	0.00	30.175 
09:30	29.5	29.5	29.5	57	16.2	1	3	270	0.00	30.173 
09:35	29.8	29.8	29.8	56	16.0	1	4	338	0.00	30.173 
09:40	30.1	30.1	30.1	57	16.7	1	5	248	0.00	30.177 
09:45	30.6	30.6	30.6	57	17.2	1	3	270	0.00	30.179 
09:50	30.7	30.7	30.7	56	16.9	2	4	248	0.00	30.182 
09:55	30.7	30.7	30.7	56	16.9	2	5	270	0.00	30.185 
10:00	30.7	30.7	30.7	56	16.9	1	5	270	0.00	30.186 
10:05	30.6	30.6	30.6	56	16.8	2	10	270	0.00	30.187 
10:10	30.6	30.6	30.6	55	16.4	2	6	248	0.01	30.188 
10:15	30.3	30.3	30.3	56	16.5	2	4	270	0.00	30.188 
10:20	30.4	30.4	30.4	55	16.2	2	4	270	0.00	30.190 
10:25	30.4	30.4	30.4	56	16.6	2	5	248	0.00	30.194 
10:30	30.7	30.7	30.7	56	16.9	2	4	270	0.00	30.197 
10:35	31.2	31.2	31.2	55	16.9	2	5	270	0.00	30.201 
10:40	31.6	31.6	31.6	55	17.3	2	6	248	0.00	30.195 
10:45	31.8	31.8	31.8	55	17.5	2	7	292	0.00	30.195 
10:50	31.5	31.5	31.5	54	16.8	2	6	315	0.00	30.192 
10:55	31.0	31.0	31.0	54	16.3	2	4	315	0.00	30.193 
11:00	31.2	31.2	31.2	54	16.5	2	6	315	0.00	30.193 
11:05	31.0	31.0	31.0	56	17.2	1	5	315	0.00	30.195 
11:10	31.3	31.3	31.3	54	16.6	2	6	270	0.00	30.198 
11:15	31.2	31.2	31.2	54	16.5	2	5	292	0.00	30.203 
11:20	31.2	31.2	31.2	54	16.5	2	5	315	0.00	30.203 
11:25	31.8	31.8	31.8	55	17.5	1	4	292	0.00	30.202 
11:30	32.5	32.5	32.5	54	17.7	2	6	248	0.00	30.202 
11:35	32.5	32.5	32.5	53	17.3	2	7	248	0.00	30.200 
11:40	32.4	32.4	32.4	53	17.2	1	4	292	0.00	30.195 
11:45	32.4	32.4	32.4	54	17.6	2	5	270	0.00	30.191 
11:50	32.4	32.4	32.4	54	17.6	1	4	315	0.00	30.190 
11:55	32.4	32.4	32.4	54	17.6	1	6	248	0.00	30.197 
12:00	32.5	32.5	32.5	54	17.7	1	4	270	0.00	30.198 
12:05	32.9	32.9	32.9	54	18.1	1	3	270	0.00	30.198 
12:10	32.8	32.8	32.8	53	17.6	1	3	0	0.00	30.201 
12:15	32.8	32.8	32.8	54	18.0	1	2	292	0.00	30.201 
12:20	32.8	32.8	32.8	53	17.6	1	5	270	0.00	30.202 
12:25	32.7	32.7	32.7	54	17.9	1	5	315	0.00	30.204 
12:30	33.2	33.2	33.2	53	17.9	1	3	292	0.00	30.204 
12:35	33.8	33.8	33.8	54	18.9	1	3	270	0.00	30.204 
12:40	34.0	34.0	34.0	53	18.7	2	6	270	0.00	30.205 
12:45	34.1	34.1	34.1	53	18.8	1	4	248	0.00	30.205 
12:50	34.1	34.1	34.1	52	18.3	1	4	248	0.00	30.205 
12:55	34.1	30.5	34.1	50	17.4	4	11	270	0.00	30.207 
13:00	33.5	33.5	33.5	51	17.3	3	6	270	0.00	30.210 
13:05	33.4	33.4	33.4	52	17.7	2	4	270	0.00	30.207 
13:10	33.2	33.2	33.2	53	17.9	2	4	292	0.00	30.205 
13:15	33.5	33.5	33.5	54	18.7	1	3	248	0.00	30.203 
13:20	34.1	34.1	34.1	53	18.8	2	4	248	0.00	30.202 
13:25	34.0	34.0	34.0	53	18.7	1	5	338	0.00	30.199 
13:30	34.0	34.0	34.0	52	18.2	2	6	270	0.00	30.200 
13:35	34.1	34.1	34.1	53	18.8	2	7	270	0.00	30.199 
13:40	34.1	34.1	34.1	52	18.3	3	7	270	0.00	30.200 
13:45	34.1	34.1	34.1	52	18.3	2	5	248	0.00	30.194 
13:50	34.3	34.3	34.3	53	19.0	2	4	292	0.00	30.190 
13:55	34.1	34.1	34.1	52	18.3	2	4	270	0.00	30.189 
14:00	34.3	34.3	34.3	53	19.0	1	4	270	0.00	30.186 
14:05	34.7	34.7	34.7	52	18.9	1	6	248	0.00	30.185 
14:10	34.6	34.6	34.6	51	18.4	1	4	248	0.00	30.177 
14:15	34.9	34.9	34.9	50	18.2	2	9	248	0.00	30.178 
14:20	35.0	35.0	35.0	52	19.2	1	4	270	0.00	30.176 
14:25	34.9	34.9	34.9	51	18.6	1	3	270	0.00	30.177 
14:30	34.7	34.7	34.7	51	18.4	1	3	270	0.00	30.177 
14:35	34.9	34.9	34.9	52	19.1	1	2	270	0.00	30.174 
14:40	35.0	35.0	35.0	53	19.6	1	3	248	0.00	30.173 
14:45	35.2	35.2	35.2	52	19.4	1	3	225	0.00	30.170 
14:50	35.0	35.0	35.0	52	19.2	2	5	248	0.00	30.171 
14:55	35.0	35.0	35.0	51	18.7	1	3	248	0.00	30.171 
15:00	35.2	35.2	35.2	51	18.9	1	5	248	0.00	30.175 
15:05	35.5	35.5	35.5	52	19.6	1	4	248	0.00	30.172 
15:10	35.6	35.6	35.6	51	19.3	2	5	248	0.00	30.171 
15:15	35.9	35.9	35.9	50	19.1	2	7	248	0.00	30.171 
15:20	36.0	36.0	36.0	49	18.7	2	5	248	0.00	30.174 
15:25	36.0	36.0	36.0	50	19.2	2	7	248	0.00	30.174 
15:30	35.6	35.6	35.6	50	18.8	3	6	248	0.00	30.174 
15:35	35.8	35.8	35.8	50	19.0	1	3	270	0.00	30.177 
15:40	35.9	35.9	35.9	50	19.1	2	11	248	0.00	30.181 
15:45	35.9	35.9	35.9	50	19.1	1	5	248	0.00	30.184 
15:50	36.2	36.2	36.2	51	19.8	1	4	248	0.00	30.184 
15:55	35.6	35.6	35.6	50	18.8	2	5	225	0.00	30.184 
16:00	34.9	34.9	34.9	51	18.6	1	4	248	0.00	30.184 
16:05	34.6	34.6	34.6	51	18.4	1	3	248	0.00	30.186 
16:10	34.1	34.1	34.1	53	18.8	1	4	248	0.00	30.189 
16:15	33.8	33.8	33.8	52	18.1	1	4	270	0.00	30.189 
16:20	33.8	33.8	33.8	53	18.5	1	2	248	0.00	30.187 
16:25	33.7	33.7	33.7	53	18.4	0	2	248	0.00	30.187 
16:30	33.8	33.8	33.8	53	18.5	0	3	248	0.00	30.189 
16:35	33.7	33.7	33.7	53	18.4	1	3	248	0.00	30.188 
16:40	33.7	33.7	33.7	53	18.4	0	1	315	0.00	30.188 
16:45	33.5	33.5	33.5	54	18.7	0	2	248	0.00	30.189 
16:50	33.4	33.4	33.4	54	18.6	0	3	248	0.00	30.188 
16:55	33.2	33.2	33.2	54	18.4	0	1	248	0.00	30.187 
17:00	33.2	33.2	33.2	55	18.8	0	1	248	0.00	30.189 
17:05	33.1	33.1	33.1	55	18.7	0	1	248	0.00	30.187 
17:10	33.1	33.1	33.1	54	18.3	0	1	248	0.00	30.189 
17:15	33.1	33.1	33.1	54	18.3	0	1	248	0.00	30.187 
17:20	32.9	32.9	32.9	55	18.5	0	1	248	0.00	30.189 
17:25	32.8	32.8	32.8	56	18.9	0	2	248	0.00	30.191 
17:30	32.8	32.8	32.8	56	18.9	0	1	248	0.00	30.191 
17:35	32.7	32.7	32.7	56	18.8	0	0	---	0.00	30.189 
17:40	32.7	32.7	32.7	54	17.9	0	1	248	0.00	30.189 
17:45	32.7	32.7	32.7	54	17.9	0	2	248	0.00	30.190 
17:50	32.7	32.7	32.7	55	18.3	0	1	248	0.00	30.190 
17:55	32.7	32.7	32.7	55	18.3	0	1	248	0.00	30.187 
18:00	32.5	32.5	32.5	55	18.2	0	1	248	0.00	30.187 
18:05	32.5	32.5	32.5	56	18.6	0	2	248	0.00	30.190 
18:10	32.5	32.5	32.5	55	18.2	0	1	248	0.00	30.189 
18:15	32.4	32.4	32.4	56	18.5	0	0	---	0.00	30.190 
18:20	32.4	32.4	32.4	56	18.5	0	0	---	0.00	30.192 
18:25	32.2	32.2	32.2	55	17.9	0	0	---	0.00	30.190 
18:30	32.2	32.2	32.2	56	18.3	0	0	---	0.00	30.190 
18:35	32.1	32.1	32.1	55	17.8	0	0	---	0.00	30.185 
18:40	32.1	32.1	32.1	55	17.8	0	0	---	0.00	30.186 
18:45	32.1	32.1	32.1	55	17.8	0	0	---	0.00	30.185 
18:50	32.1	32.1	32.1	56	18.2	0	0	---	0.00	30.182 
18:55	32.1	32.1	32.1	57	18.6	0	1	248	0.00	30.181 
19:00	32.1	32.1	32.1	56	18.2	0	1	248	0.00	30.179 
19:05	32.1	32.1	32.1	56	18.2	0	1	248	0.00	30.179 
19:10	32.1	32.1	32.1	58	19.0	0	0	---	0.00	30.181 
19:15	32.1	32.1	32.1	58	19.0	0	0	---	0.00	30.186 
19:20	32.1	32.1	32.1	58	19.0	0	1	248	0.00	30.189 
19:25	32.1	32.1	32.1	59	19.4	0	0	---	0.00	30.190 
19:30	32.1	32.1	32.1	59	19.4	0	1	248	0.00	30.186 
19:35	31.9	31.9	31.9	60	19.6	0	1	248	0.00	30.181 
19:40	31.9	31.9	31.9	60	19.6	0	2	248	0.00	30.179 
19:45	31.9	31.9	31.9	61	20.0	0	1	248	0.00	30.177 
19:50	31.9	31.9	31.9	61	20.0	1	3	135	0.00	30.176 
19:55	31.9	31.9	31.9	62	20.4	1	2	135	0.00	30.173 
20:00	31.9	31.9	31.9	62	20.4	0	1	135	0.00	30.176 
20:05	31.9	31.9	31.9	64	21.1	0	1	135	0.00	30.171 
20:10	31.8	31.8	31.8	63	20.7	0	1	135	0.00	30.175 
20:15	31.8	31.8	31.8	62	20.3	0	2	135	0.00	30.175 
20:20	31.8	31.8	31.8	62	20.3	0	1	135	0.00	30.176 
20:25	31.8	31.8	31.8	62	20.3	0	1	135	0.00	30.180 
20:30	31.8	31.8	31.8	61	19.9	0	2	135	0.00	30.177 
20:35	31.8	31.8	31.8	62	20.3	0	2	135	0.00	30.175 
20:40	31.6	31.6	31.6	63	20.5	0	2	135	0.00	30.173 
20:45	31.6	31.6	31.6	63	20.5	0	2	135	0.00	30.174 
20:50	31.5	31.5	31.5	64	20.7	0	1	135	0.00	30.175 
20:55	31.5	31.5	31.5	65	21.1	0	1	135	0.00	30.176 
21:00	31.5	31.5	31.5	65	21.1	0	1	135	0.00	30.175 
21:05	31.5	31.5	31.5	66	21.5	0	1	135	0.00	30.173 
21:10	31.5	31.5	31.5	66	21.5	0	1	135	0.00	30.173 
21:15	31.5	31.5	31.5	66	21.5	0	1	135	0.00	30.173 
21:20	31.3	31.3	31.3	66	21.3	1	2	135	0.00	30.174 
21:25	31.5	31.5	31.5	67	21.8	0	1	135	0.00	30.175 
21:30	31.3	31.3	31.3	67	21.6	0	1	135	0.00	30.177 
21:35	31.3	31.3	31.3	68	22.0	0	1	135	0.00	30.179 
21:40	31.3	31.3	31.3	69	22.3	0	1	135	0.00	30.181 
21:45	31.2	31.2	31.2	69	22.2	0	1	135	0.00	30.185 
21:50	31.2	31.2	31.2	69	22.2	0	1	135	0.00	30.185 
21:55	31.0	31.0	31.0	69	22.0	0	1	135	0.00	30.187 
22:00	30.7	30.7	30.7	70	22.1	0	0	---	0.00	30.185 
22:05	30.6	30.6	30.6	71	22.3	0	0	---	0.00	30.184 
22:10	30.4	30.4	30.4	71	22.1	0	1	135	0.00	30.184 
22:15	30.4	30.4	30.4	71	22.1	0	0	---	0.00	30.186 
22:20	30.4	30.4	30.4	71	22.1	0	0	---	0.00	30.186 
22:25	30.3	30.3	30.3	71	22.0	0	0	---	0.00	30.187 
22:30	30.1	30.1	30.1	72	22.2	0	1	135	0.00	30.189 
22:35	29.8	29.8	29.8	72	21.9	0	0	---	0.00	30.190 
22:40	29.5	29.5	29.5	72	21.6	0	0	---	0.00	30.189 
22:45	29.4	29.4	29.4	73	21.8	0	0	---	0.00	30.190 
22:50	29.0	29.0	29.0	73	21.4	0	0	---	0.00	30.189 
22:55	28.7	28.7	28.7	73	21.2	0	0	---	0.00	30.187 
23:00	28.2	28.2	28.2	73	20.7	0	0	---	0.00	30.191 
23:05	27.9	27.9	27.9	74	20.7	0	0	---	0.00	30.190 
23:10	27.6	27.6	27.6	75	20.7	0	0	---	0.00	30.189 
23:15	27.5	27.5	27.5	76	20.9	0	1	135	0.00	30.189 
23:20	27.6	27.6	27.6	78	21.7	0	1	135	0.00	30.188 
23:25	27.8	27.8	27.8	78	21.8	0	1	135	0.00	30.189 
23:30	27.8	27.8	27.8	78	21.8	0	1	135	0.00	30.183 
23:35	27.9	27.9	27.9	78	21.9	0	1	135	0.00	30.184 
23:40	28.1	28.1	28.1	78	22.1	0	2	135	0.00	30.186 
23:45	28.1	28.1	28.1	78	22.1	0	2	135	0.00	30.188 
23:50	28.2	28.2	28.2	78	22.2	0	1	135	0.00	30.187 
23:55	28.1	28.1	28.1	78	22.1	0	1	135	0.00	30.186 

CoCoRaHS
IN-AL-39
A2 Web Hosting
Creative Commons License
GoDaddy
Look for:

loaded 2017-10-18 07:14:51 • last modified 2010-11-18 10:43:29
Privacy PolicyDisclaimer
• wx.awcolley.com is powered by PmWiki v.2002016 •
• all content (unless otherwise noted) © 2017 A W Colley